createdAt,value
2022-10-11T00:00:03.854Z,0.00
2022-10-11T00:01:03.769Z,0.00
2022-10-11T00:02:01.985Z,0.00
2022-10-11T00:03:02.145Z,0.00
2022-10-11T00:04:01.991Z,0.00
2022-10-11T00:05:01.995Z,0.00
2022-10-11T00:06:02.085Z,0.00
2022-10-11T00:07:02.435Z,0.00
2022-10-11T00:08:02.351Z,0.00
2022-10-11T00:09:02.154Z,0.00
2022-10-11T00:10:02.166Z,0.00
2022-10-11T00:11:02.623Z,0.00
2022-10-11T00:12:03.014Z,0.00
2022-10-11T00:13:02.551Z,0.00
2022-10-11T00:14:02.657Z,0.00
2022-10-11T00:15:02.771Z,0.00
2022-10-11T00:16:03.464Z,0.00
2022-10-11T00:17:02.663Z,0.00
2022-10-11T00:18:05.396Z,0.00
2022-10-11T00:19:02.725Z,0.00
2022-10-11T00:20:02.574Z,0.00
2022-10-11T00:21:03.007Z,0.00
2022-10-11T00:22:02.280Z,0.00
2022-10-11T00:23:02.327Z,0.00
2022-10-11T00:24:02.258Z,0.00
2022-10-11T00:25:01.914Z,0.00
2022-10-11T00:26:02.211Z,0.00
2022-10-11T00:27:02.443Z,0.00
2022-10-11T00:28:02.955Z,0.00
2022-10-11T00:29:02.727Z,0.00
2022-10-11T00:30:02.485Z,0.00
2022-10-11T00:31:03.357Z,0.00
2022-10-11T00:32:02.445Z,0.00
2022-10-11T00:33:02.824Z,0.00
2022-10-11T00:34:02.504Z,0.00
2022-10-11T00:35:03.030Z,0.00
2022-10-11T00:36:02.940Z,0.00
2022-10-11T00:37:02.206Z,0.00
2022-10-11T00:38:02.019Z,0.00
2022-10-11T00:39:02.293Z,0.00
2022-10-11T00:40:02.066Z,0.00
2022-10-11T00:41:01.720Z,0.00
2022-10-11T00:42:02.176Z,0.00
2022-10-11T00:43:02.593Z,0.00
2022-10-11T00:44:02.555Z,0.00
2022-10-11T00:45:02.525Z,0.00
2022-10-11T00:46:02.507Z,0.00
2022-10-11T00:47:02.801Z,0.00
2022-10-11T00:48:02.718Z,0.00
2022-10-11T00:49:02.322Z,0.00
2022-10-11T00:50:02.628Z,0.00
2022-10-11T00:51:03.173Z,0.00
2022-10-11T00:52:02.073Z,0.00
2022-10-11T00:53:02.494Z,0.00
2022-10-11T00:54:02.142Z,0.00
2022-10-11T00:55:02.213Z,0.00
2022-10-11T00:56:02.377Z,0.00
2022-10-11T00:57:02.338Z,0.00
2022-10-11T00:58:02.703Z,0.00
2022-10-11T00:59:02.543Z,0.00
2022-10-11T01:00:02.267Z,0.00
2022-10-11T01:01:02.789Z,0.00
2022-10-11T01:02:02.328Z,0.00
2022-10-11T01:03:02.695Z,0.00
2022-10-11T01:04:02.400Z,0.00
2022-10-11T01:05:27.712Z,0.00
2022-10-11T01:06:02.817Z,0.00
2022-10-11T01:07:02.581Z,0.00
2022-10-11T01:08:03.001Z,0.00
2022-10-11T01:09:02.998Z,0.00
2022-10-11T01:10:02.884Z,0.00
2022-10-11T01:11:02.591Z,0.00
2022-10-11T01:12:03.085Z,0.00
2022-10-11T01:13:03.139Z,0.00
2022-10-11T01:14:03.409Z,0.00
2022-10-11T01:15:03.517Z,0.00
2022-10-11T01:16:03.660Z,0.00
2022-10-11T01:17:02.696Z,0.00
2022-10-11T01:18:02.365Z,0.00
2022-10-11T01:19:02.946Z,0.00
2022-10-11T01:20:02.925Z,0.00
2022-10-11T01:21:02.267Z,0.00
2022-10-11T01:22:02.854Z,0.00
2022-10-11T01:23:03.055Z,0.00
2022-10-11T01:24:08.180Z,0.00
2022-10-11T01:25:02.818Z,0.00
2022-10-11T01:26:03.672Z,0.00
2022-10-11T01:27:03.552Z,0.00
2022-10-11T01:28:03.226Z,0.00
2022-10-11T01:29:03.190Z,0.00
2022-10-11T01:30:02.934Z,0.00
2022-10-11T01:31:03.187Z,0.00
2022-10-11T01:32:03.062Z,0.00
2022-10-11T01:33:02.625Z,0.00
2022-10-11T01:34:03.053Z,0.00
2022-10-11T01:35:03.013Z,0.00
2022-10-11T01:36:02.944Z,0.00
2022-10-11T01:37:02.951Z,0.00
2022-10-11T01:38:02.619Z,0.00
2022-10-11T01:39:03.046Z,0.00
2022-10-11T01:40:03.213Z,0.00
2022-10-11T01:41:02.752Z,0.00
2022-10-11T01:42:03.239Z,0.00
2022-10-11T01:43:03.403Z,0.00
2022-10-11T01:44:03.167Z,0.00
2022-10-11T01:45:03.028Z,0.00
2022-10-11T01:46:03.815Z,0.00
2022-10-11T01:47:02.679Z,0.00
2022-10-11T01:48:02.844Z,0.00
2022-10-11T01:49:02.969Z,0.00
2022-10-11T01:50:02.346Z,0.00
2022-10-11T01:51:02.463Z,0.00
2022-10-11T01:52:02.881Z,0.00
2022-10-11T01:53:03.245Z,0.00
2022-10-11T01:54:02.563Z,0.00
2022-10-11T01:55:09.518Z,0.00
2022-10-11T01:56:03.555Z,0.00
2022-10-11T01:57:03.168Z,0.00
2022-10-11T01:58:03.104Z,0.00
2022-10-11T01:59:03.641Z,0.00
2022-10-11T02:00:03.624Z,0.00
2022-10-11T02:01:03.602Z,0.00
2022-10-11T02:02:02.838Z,0.00
2022-10-11T02:03:02.762Z,0.00
2022-10-11T02:04:03.153Z,0.00
2022-10-11T02:05:02.960Z,0.00
2022-10-11T02:06:03.439Z,0.00
2022-10-11T02:07:02.957Z,0.00
2022-10-11T02:08:03.351Z,0.00
2022-10-11T02:09:07.794Z,0.00
2022-10-11T02:10:03.341Z,0.00
2022-10-11T02:11:02.974Z,0.00
2022-10-11T02:12:03.014Z,0.00
2022-10-11T02:13:03.318Z,0.00
2022-10-11T02:14:03.006Z,0.00
2022-10-11T02:15:03.399Z,0.00
2022-10-11T02:16:03.812Z,0.00
2022-10-11T02:17:02.870Z,0.00
2022-10-11T02:18:03.001Z,0.00
2022-10-11T02:19:02.403Z,0.00
2022-10-11T02:20:02.794Z,0.00
2022-10-11T02:21:02.695Z,0.00
2022-10-11T02:22:02.796Z,0.00
2022-10-11T02:23:02.547Z,0.00
2022-10-11T02:24:02.657Z,0.00
2022-10-11T02:25:02.638Z,0.00
2022-10-11T02:26:03.026Z,0.00
2022-10-11T02:27:02.619Z,0.00
2022-10-11T02:28:02.510Z,0.00
2022-10-11T02:29:02.571Z,0.00
2022-10-11T02:30:03.016Z,0.00
2022-10-11T02:31:03.033Z,0.00
2022-10-11T02:32:02.993Z,0.00
2022-10-11T02:33:03.223Z,0.00
2022-10-11T02:34:03.008Z,0.00
2022-10-11T02:35:02.818Z,0.00
2022-10-11T02:36:03.818Z,0.00
2022-10-11T02:37:03.619Z,0.00
2022-10-11T02:38:03.735Z,0.00
2022-10-11T02:39:03.646Z,0.00
2022-10-11T02:40:03.606Z,0.00
2022-10-11T02:41:03.394Z,0.00
2022-10-11T02:42:02.596Z,0.00
2022-10-11T02:43:02.699Z,0.00
2022-10-11T02:44:02.673Z,0.00
2022-10-11T02:45:02.426Z,0.00
2022-10-11T02:46:03.213Z,0.00
2022-10-11T02:47:02.797Z,0.00
2022-10-11T02:48:02.965Z,0.00
2022-10-11T02:49:02.652Z,0.00
2022-10-11T02:50:02.588Z,0.00
2022-10-11T02:51:03.015Z,0.00
2022-10-11T02:52:03.476Z,0.00
2022-10-11T02:53:02.975Z,0.00
2022-10-11T02:54:03.266Z,0.00
2022-10-11T02:55:03.162Z,0.00
2022-10-11T02:56:03.536Z,0.00
2022-10-11T02:57:03.581Z,0.00
2022-10-11T02:58:03.694Z,0.00
2022-10-11T02:59:03.488Z,0.00
2022-10-11T03:00:03.749Z,0.00
2022-10-11T03:01:03.126Z,0.00
2022-10-11T03:02:02.402Z,0.00
2022-10-11T03:03:02.042Z,0.00
2022-10-11T03:04:01.806Z,0.00
2022-10-11T03:05:02.081Z,0.00
2022-10-11T03:06:02.574Z,0.00
2022-10-11T03:07:02.471Z,0.00
2022-10-11T03:08:02.960Z,0.00
2022-10-11T03:09:02.551Z,0.00
2022-10-11T03:10:02.953Z,0.00
2022-10-11T03:11:02.627Z,0.00
2022-10-11T03:12:03.004Z,0.00
2022-10-11T03:13:02.908Z,0.00
2022-10-11T03:14:02.638Z,0.00
2022-10-11T03:15:03.014Z,0.00
2022-10-11T03:16:03.804Z,0.00
2022-10-11T03:17:23.770Z,0.00
2022-10-11T03:18:02.240Z,0.00
2022-10-11T03:19:02.000Z,0.00
2022-10-11T03:20:02.413Z,0.00
2022-10-11T03:21:02.095Z,0.00
2022-10-11T03:22:02.608Z,0.00
2022-10-11T03:23:02.325Z,0.00
2022-10-11T03:24:02.260Z,0.00
2022-10-11T03:25:04.462Z,0.00
2022-10-11T03:26:03.209Z,0.00
2022-10-11T03:27:02.645Z,0.00
2022-10-11T03:28:02.894Z,0.00
2022-10-11T03:29:02.734Z,0.00
2022-10-11T03:30:02.851Z,0.00
2022-10-11T03:31:02.501Z,0.00
2022-10-11T03:32:02.613Z,0.00
2022-10-11T03:33:02.250Z,0.00
2022-10-11T03:34:02.448Z,0.00
2022-10-11T03:35:02.231Z,0.00
2022-10-11T03:36:02.765Z,0.00
2022-10-11T03:37:02.863Z,0.00
2022-10-11T03:38:02.682Z,0.00
2022-10-11T03:39:02.540Z,0.00
2022-10-11T03:40:02.873Z,0.00
2022-10-11T03:41:02.440Z,0.00
2022-10-11T03:42:01.839Z,0.00
2022-10-11T03:43:01.923Z,0.00
2022-10-11T03:44:02.311Z,0.00
2022-10-11T03:45:01.958Z,0.00
2022-10-11T03:46:02.285Z,0.00
2022-10-11T03:47:02.017Z,0.00
2022-10-11T03:48:02.017Z,0.00
2022-10-11T03:49:02.430Z,0.00
2022-10-11T03:50:01.985Z,0.00
2022-10-11T03:51:02.036Z,0.00
2022-10-11T03:52:02.809Z,0.00
2022-10-11T03:53:02.417Z,0.00
2022-10-11T03:54:02.888Z,0.00
2022-10-11T03:55:02.404Z,0.00
2022-10-11T03:56:07.392Z,0.00
2022-10-11T03:57:01.792Z,0.00
2022-10-11T03:58:02.023Z,0.00
2022-10-11T03:59:01.790Z,0.00
2022-10-11T04:00:01.713Z,0.00
2022-10-11T04:01:02.239Z,0.00
2022-10-11T04:02:03.354Z,0.00
2022-10-11T04:03:03.093Z,0.00
2022-10-11T04:04:03.193Z,0.00
2022-10-11T04:05:03.600Z,0.00
2022-10-11T04:06:03.835Z,0.00
2022-10-11T04:07:03.156Z,0.00
2022-10-11T04:08:02.866Z,0.00
2022-10-11T04:09:02.559Z,0.00
2022-10-11T04:10:02.841Z,0.00
2022-10-11T04:11:02.542Z,0.00
2022-10-11T04:12:02.840Z,0.00
2022-10-11T04:13:03.008Z,0.00
2022-10-11T04:14:03.396Z,0.00
2022-10-11T04:15:02.940Z,0.00
2022-10-11T04:16:03.852Z,0.00
2022-10-11T04:17:03.198Z,0.00
2022-10-11T04:18:03.347Z,0.00
2022-10-11T04:19:03.544Z,0.00
2022-10-11T04:20:02.957Z,0.00
2022-10-11T04:21:03.304Z,0.00
2022-10-11T04:22:03.006Z,0.00
2022-10-11T04:23:02.837Z,0.00
2022-10-11T04:24:02.965Z,0.00
2022-10-11T04:25:02.638Z,0.00
2022-10-11T04:26:03.599Z,0.00
2022-10-11T04:27:03.267Z,0.00
2022-10-11T04:28:03.653Z,0.00
2022-10-11T04:29:03.364Z,0.00
2022-10-11T04:30:03.751Z,0.00
2022-10-11T04:31:03.154Z,0.00
2022-10-11T04:32:02.606Z,0.00
2022-10-11T04:33:02.476Z,0.00
2022-10-11T04:34:02.765Z,0.00
2022-10-11T04:35:04.657Z,0.00
2022-10-11T04:36:03.047Z,0.00
2022-10-11T04:37:03.087Z,0.00
2022-10-11T04:38:02.898Z,0.00
2022-10-11T04:39:02.801Z,0.00
2022-10-11T04:40:03.228Z,0.00
2022-10-11T04:41:02.759Z,0.00
2022-10-11T04:42:03.827Z,0.00
2022-10-11T04:43:03.650Z,0.00
2022-10-11T04:44:03.619Z,0.00
2022-10-11T04:45:03.360Z,0.00
2022-10-11T04:46:04.186Z,0.00
2022-10-11T04:47:03.052Z,0.00
2022-10-11T04:48:03.157Z,0.00
2022-10-11T04:49:02.907Z,0.00
2022-10-11T04:50:03.208Z,0.00
2022-10-11T04:51:02.990Z,0.00
2022-10-11T04:52:03.660Z,0.00
2022-10-11T04:53:03.516Z,0.00
2022-10-11T04:54:03.633Z,0.00
2022-10-11T04:55:03.366Z,0.00
2022-10-11T04:56:04.077Z,0.00
2022-10-11T04:57:03.404Z,0.00
2022-10-11T04:58:03.802Z,0.00
2022-10-11T04:59:03.397Z,0.00
2022-10-11T05:00:03.774Z,0.00
2022-10-11T05:01:03.177Z,0.00
2022-10-11T05:02:02.645Z,0.00
2022-10-11T05:03:02.644Z,0.00
2022-10-11T05:04:02.642Z,0.00
2022-10-11T05:05:03.074Z,0.00
2022-10-11T05:06:05.644Z,0.00
2022-10-11T05:07:03.165Z,0.00
2022-10-11T05:08:03.237Z,0.00
2022-10-11T05:09:03.060Z,0.00
2022-10-11T05:10:02.895Z,0.00
2022-10-11T05:11:03.310Z,0.00
2022-10-11T05:12:03.001Z,0.00
2022-10-11T05:13:02.755Z,0.00
2022-10-11T05:14:02.913Z,0.00
2022-10-11T05:15:02.950Z,0.00
2022-10-11T05:16:05.879Z,0.00
2022-10-11T05:17:02.578Z,0.00
2022-10-11T05:18:02.962Z,4.00
2022-10-11T05:19:02.606Z,4.00
2022-10-11T05:20:02.804Z,0.00
2022-10-11T05:21:02.490Z,4.00
2022-10-11T05:22:02.864Z,4.00
2022-10-11T05:23:02.661Z,4.00
2022-10-11T05:24:02.847Z,4.00
2022-10-11T05:25:02.969Z,8.00
2022-10-11T05:26:03.324Z,8.00
2022-10-11T05:27:03.618Z,8.00
2022-10-11T05:28:02.626Z,8.00
2022-10-11T05:29:02.870Z,12.00
2022-10-11T05:30:02.954Z,16.00
2022-10-11T05:31:02.615Z,16.00
2022-10-11T05:32:03.202Z,20.00
2022-10-11T05:33:03.617Z,24.00
2022-10-11T05:34:03.650Z,28.00
2022-10-11T05:35:03.260Z,28.00
2022-10-11T05:36:03.425Z,36.00
2022-10-11T05:37:03.714Z,40.00
2022-10-11T05:38:03.296Z,48.00
2022-10-11T05:39:03.632Z,52.00
2022-10-11T05:40:03.534Z,60.00
2022-10-11T05:41:03.449Z,68.00
2022-10-11T05:42:05.506Z,76.00
2022-10-11T05:43:02.694Z,84.00
2022-10-11T05:44:03.170Z,92.00
2022-10-11T05:45:02.688Z,104.00
2022-10-11T05:46:03.759Z,116.00
2022-10-11T05:47:03.280Z,124.00
2022-10-11T05:48:02.956Z,132.00
2022-10-11T05:49:03.296Z,144.00
2022-10-11T05:50:02.820Z,156.00
2022-10-11T05:51:02.780Z,172.00
2022-10-11T05:52:02.869Z,188.00
2022-10-11T05:53:03.086Z,200.00
2022-10-11T05:54:03.266Z,216.00
2022-10-11T05:55:03.124Z,228.00
2022-10-11T05:56:03.798Z,244.00
2022-10-11T05:57:03.475Z,264.00
2022-10-11T05:58:03.407Z,280.00
2022-10-11T05:59:03.620Z,300.00
2022-10-11T06:00:03.289Z,324.00
2022-10-11T06:01:03.746Z,344.00
2022-10-11T06:02:03.152Z,368.00
2022-10-11T06:03:02.914Z,396.00
2022-10-11T06:04:03.193Z,424.00
2022-10-11T06:05:02.745Z,448.00
2022-10-11T06:06:03.383Z,472.00
2022-10-11T06:07:02.746Z,496.00
2022-10-11T06:08:02.382Z,512.00
2022-10-11T06:09:02.783Z,532.00
2022-10-11T06:10:02.447Z,552.00
2022-10-11T06:11:02.282Z,572.00
2022-10-11T06:12:02.615Z,600.00
2022-10-11T06:13:03.060Z,636.00
2022-10-11T06:14:02.721Z,672.00
2022-10-11T06:15:02.926Z,700.00
2022-10-11T06:16:03.696Z,728.00
2022-10-11T06:17:02.236Z,748.00
2022-10-11T06:18:02.482Z,756.00
2022-10-11T06:19:02.595Z,772.00
2022-10-11T06:20:02.762Z,776.00
2022-10-11T06:21:02.489Z,764.00
2022-10-11T06:22:02.479Z,784.00
2022-10-11T06:23:02.755Z,824.00
2022-10-11T06:24:02.655Z,856.00
2022-10-11T06:25:02.385Z,876.00
2022-10-11T06:26:03.041Z,884.00
2022-10-11T06:27:02.954Z,884.00
2022-10-11T06:28:03.128Z,956.00
2022-10-11T06:29:02.701Z,996.00
2022-10-11T06:30:03.108Z,1036.00
2022-10-11T06:31:03.004Z,1072.00
2022-10-11T06:32:02.922Z,1108.00
2022-10-11T06:33:04.978Z,1128.00
2022-10-11T06:34:02.979Z,1116.00
2022-10-11T06:35:02.921Z,1112.00
2022-10-11T06:36:03.645Z,1112.00
2022-10-11T06:37:02.257Z,1152.00
2022-10-11T06:38:02.454Z,1196.00
2022-10-11T06:39:02.268Z,1224.00
2022-10-11T06:40:02.498Z,1260.00
2022-10-11T06:41:02.272Z,1296.00
2022-10-11T06:42:02.988Z,1364.00
2022-10-11T06:43:02.582Z,1412.00
2022-10-11T06:44:02.932Z,1464.00
2022-10-11T06:45:03.010Z,1508.00
2022-10-11T06:46:02.701Z,1536.00
2022-10-11T06:47:03.305Z,1564.00
2022-10-11T06:48:03.195Z,1548.00
2022-10-11T06:49:03.208Z,1560.00
2022-10-11T06:50:03.083Z,1520.00
2022-10-11T06:51:03.398Z,1508.00
2022-10-11T06:52:02.440Z,1520.00
2022-10-11T06:53:02.414Z,1584.00
2022-10-11T06:54:02.626Z,1684.00
2022-10-11T06:55:02.049Z,1776.00
2022-10-11T06:56:02.689Z,1784.00
2022-10-11T06:57:03.077Z,1844.00
2022-10-11T06:58:03.257Z,1900.00
2022-10-11T06:59:03.133Z,1904.00
2022-10-11T07:00:03.166Z,1756.00
2022-10-11T07:01:02.766Z,1884.00
2022-10-11T07:02:02.025Z,2064.00
2022-10-11T07:03:02.035Z,2156.00
2022-10-11T07:04:02.638Z,2248.00
2022-10-11T07:05:02.103Z,2312.00
2022-10-11T07:06:02.795Z,2336.00
2022-10-11T07:07:02.469Z,2344.00
2022-10-11T07:08:02.504Z,2272.00
2022-10-11T07:09:02.234Z,2260.00
2022-10-11T07:10:02.743Z,2236.00
2022-10-11T07:11:02.842Z,2136.00
2022-10-11T07:12:03.175Z,2092.00
2022-10-11T07:13:03.505Z,2464.00
2022-10-11T07:14:03.256Z,2528.00
2022-10-11T07:15:02.861Z,2596.00
2022-10-11T07:16:03.757Z,2696.00
2022-10-11T07:17:01.979Z,2752.00
2022-10-11T07:18:02.405Z,2688.00
2022-10-11T07:19:02.553Z,2652.00
2022-10-11T07:20:02.541Z,2740.00
2022-10-11T07:21:02.131Z,2756.00
2022-10-11T07:22:02.522Z,2800.00
2022-10-11T07:23:02.276Z,2876.00
2022-10-11T07:24:02.559Z,3016.00
2022-10-11T07:25:02.229Z,2840.00
2022-10-11T07:26:02.483Z,2568.00
2022-10-11T07:27:02.447Z,2716.00
2022-10-11T07:28:02.296Z,2824.00
2022-10-11T07:29:02.286Z,2940.00
2022-10-11T07:30:02.613Z,3164.00
2022-10-11T07:31:02.587Z,3448.00
2022-10-11T07:32:02.873Z,3428.00
2022-10-11T07:33:02.836Z,3412.00
2022-10-11T07:34:02.395Z,3700.00
2022-10-11T07:35:02.908Z,3576.00
2022-10-11T07:36:03.277Z,3812.00
2022-10-11T07:37:02.881Z,4180.00
2022-10-11T07:38:02.761Z,4412.00
2022-10-11T07:39:02.643Z,4556.00
2022-10-11T07:40:02.768Z,4576.00
2022-10-11T07:41:03.019Z,4624.00
2022-10-11T07:42:03.060Z,4768.00
2022-10-11T07:43:02.986Z,4992.00
2022-10-11T07:44:02.917Z,5088.00
2022-10-11T07:45:03.280Z,5256.00
2022-10-11T07:46:03.276Z,5316.00
2022-10-11T07:47:05.759Z,5212.00
2022-10-11T07:48:03.269Z,5144.00
2022-10-11T07:49:02.878Z,4992.00
2022-10-11T07:50:02.977Z,5400.00
2022-10-11T07:51:03.436Z,5560.00
2022-10-11T07:52:02.806Z,5808.00
2022-10-11T07:53:02.663Z,5928.00
2022-10-11T07:54:07.036Z,6040.00
2022-10-11T07:55:02.272Z,6120.00
2022-10-11T07:56:03.117Z,6212.00
2022-10-11T07:57:02.692Z,6136.00
2022-10-11T07:58:02.786Z,5816.00
2022-10-11T07:59:02.649Z,5552.00
2022-10-11T08:00:02.373Z,5428.00
2022-10-11T08:01:02.782Z,5400.00
2022-10-11T08:02:03.017Z,5368.00
2022-10-11T08:03:02.946Z,5416.00
2022-10-11T08:04:02.931Z,5452.00
2022-10-11T08:05:03.569Z,5460.00
2022-10-11T08:06:03.910Z,5460.00
2022-10-11T08:07:02.487Z,5376.00
2022-10-11T08:08:02.512Z,5284.00
2022-10-11T08:09:02.332Z,5176.00
2022-10-11T08:10:02.732Z,5124.00
2022-10-11T08:11:02.625Z,5020.00
2022-10-11T08:12:02.903Z,4864.00
2022-10-11T08:13:04.505Z,4652.00
2022-10-11T08:14:02.518Z,4564.00
2022-10-11T08:15:02.598Z,4676.00
2022-10-11T08:16:03.213Z,4520.00
2022-10-11T08:17:03.126Z,4412.00
2022-10-11T08:18:02.819Z,4588.00
2022-10-11T08:19:02.609Z,4736.00
2022-10-11T08:20:02.581Z,4952.00
2022-10-11T08:21:03.048Z,5300.00
2022-10-11T08:22:03.180Z,5744.00
2022-10-11T08:23:03.295Z,6084.00
2022-10-11T08:24:02.989Z,6316.00
2022-10-11T08:25:03.181Z,6328.00
2022-10-11T08:26:03.813Z,6028.00
2022-10-11T08:27:03.372Z,5740.00
2022-10-11T08:28:03.315Z,5924.00
2022-10-11T08:29:03.579Z,6264.00
2022-10-11T08:30:03.222Z,6412.00
2022-10-11T08:31:03.698Z,6396.00
2022-10-11T08:32:02.308Z,6408.00
2022-10-11T08:33:07.595Z,6380.00
2022-10-11T08:34:02.445Z,6188.00
2022-10-11T08:35:02.352Z,6072.00
2022-10-11T08:36:02.831Z,6148.00
2022-10-11T08:37:03.064Z,5928.00
2022-10-11T08:38:02.705Z,5496.00
2022-10-11T08:39:02.804Z,5340.00
2022-10-11T08:40:02.822Z,5488.00
2022-10-11T08:41:02.572Z,5856.00
2022-10-11T08:42:03.424Z,6044.00
2022-10-11T08:43:03.475Z,6004.00
2022-10-11T08:44:02.967Z,5920.00
2022-10-11T08:45:11.057Z,5880.00
2022-10-11T08:46:03.668Z,5960.00
2022-10-11T08:47:02.599Z,6140.00
2022-10-11T08:48:02.881Z,6112.00
2022-10-11T08:49:03.154Z,5880.00
2022-10-11T08:50:03.108Z,5700.00
2022-10-11T08:51:03.009Z,5800.00
2022-10-11T08:52:03.086Z,5996.00
2022-10-11T08:53:02.724Z,6148.00
2022-10-11T08:54:07.398Z,6184.00
2022-10-11T08:55:02.767Z,6184.00
2022-10-11T08:56:03.038Z,6160.00
2022-10-11T08:57:03.440Z,6088.00
2022-10-11T08:58:02.996Z,6224.00
2022-10-11T08:59:03.337Z,6488.00
2022-10-11T09:00:03.505Z,6624.00
2022-10-11T09:01:03.058Z,6492.00
2022-10-11T09:02:03.802Z,6340.00
2022-10-11T09:03:08.580Z,6232.00
2022-10-11T09:04:03.489Z,6160.00
2022-10-11T09:05:03.263Z,6268.00
2022-10-11T09:06:04.240Z,6472.00
2022-10-11T09:07:05.063Z,6560.00
2022-10-11T09:08:03.266Z,6440.00
2022-10-11T09:09:03.103Z,6272.00
2022-10-11T09:10:02.828Z,6272.00
2022-10-11T09:11:03.171Z,6288.00
2022-10-11T09:12:03.285Z,6188.00
2022-10-11T09:13:03.183Z,6364.00
2022-10-11T09:14:03.531Z,6556.00
2022-10-11T09:15:03.217Z,6684.00
2022-10-11T09:16:03.777Z,6752.00
2022-10-11T09:17:02.964Z,7084.00
2022-10-11T09:18:02.533Z,7548.00
2022-10-11T09:19:02.851Z,8024.00
2022-10-11T09:20:02.888Z,8564.00
2022-10-11T09:21:02.396Z,9128.00
2022-10-11T09:22:03.487Z,9484.00
2022-10-11T09:23:02.875Z,9492.00
2022-10-11T09:24:03.391Z,9160.00
2022-10-11T09:25:03.314Z,8868.00
2022-10-11T09:26:03.262Z,8572.00
2022-10-11T09:27:03.083Z,8240.00
2022-10-11T09:28:04.093Z,7960.00
2022-10-11T09:29:03.185Z,7880.00
2022-10-11T09:30:03.640Z,7940.00
2022-10-11T09:31:03.296Z,7968.00
2022-10-11T09:32:03.853Z,7928.00
2022-10-11T09:33:03.379Z,8060.00
2022-10-11T09:34:03.322Z,8348.00
2022-10-11T09:35:03.352Z,8740.00
2022-10-11T09:36:03.907Z,9140.00
2022-10-11T09:37:03.057Z,9732.00
2022-10-11T09:38:03.041Z,10556.00
2022-10-11T09:39:06.458Z,11484.00
2022-10-11T09:40:02.559Z,11584.00
2022-10-11T09:41:02.776Z,10944.00
2022-10-11T09:42:02.454Z,10040.00
2022-10-11T09:43:02.965Z,9492.00
2022-10-11T09:44:02.477Z,9508.00
2022-10-11T09:45:02.609Z,9864.00
2022-10-11T09:46:02.845Z,10532.00
2022-10-11T09:47:03.127Z,10692.00
2022-10-11T09:48:03.461Z,10536.00
2022-10-11T09:49:03.024Z,10488.00
2022-10-11T09:50:03.068Z,10684.00
2022-10-11T09:51:03.337Z,10936.00
2022-10-11T09:52:02.627Z,11304.00
2022-10-11T09:53:03.184Z,11524.00
2022-10-11T09:54:02.825Z,11892.00
2022-10-11T09:55:03.127Z,12376.00
2022-10-11T09:56:03.011Z,12972.00
2022-10-11T09:57:03.758Z,12856.00
2022-10-11T09:58:03.248Z,12188.00
2022-10-11T09:59:03.664Z,12128.00
2022-10-11T10:00:03.660Z,12648.00
2022-10-11T10:01:07.911Z,13412.00
2022-10-11T10:02:02.941Z,13752.00
2022-10-11T10:03:03.247Z,13748.00
2022-10-11T10:04:02.813Z,11824.00
2022-10-11T10:05:02.984Z,10344.00
2022-10-11T10:06:03.522Z,9648.00
2022-10-11T10:07:02.720Z,9680.00
2022-10-11T10:08:04.790Z,9732.00
2022-10-11T10:09:02.955Z,9892.00
2022-10-11T10:10:02.425Z,10460.00
2022-10-11T10:11:02.736Z,10876.00
2022-10-11T10:12:03.046Z,11624.00
2022-10-11T10:13:03.026Z,12992.00
2022-10-11T10:14:03.261Z,13060.00
2022-10-11T10:15:03.339Z,14336.00
2022-10-11T10:16:03.398Z,12704.00
2022-10-11T10:17:02.639Z,10800.00
2022-10-11T10:18:02.897Z,10276.00
2022-10-11T10:19:02.839Z,11360.00
2022-10-11T10:20:02.800Z,10560.00
2022-10-11T10:21:02.846Z,14464.00
2022-10-11T10:22:03.511Z,10564.00
2022-10-11T10:23:03.092Z,10548.00
2022-10-11T10:24:03.391Z,12200.00
2022-10-11T10:25:03.669Z,11116.00
2022-10-11T10:26:03.862Z,8644.00
2022-10-11T10:27:02.827Z,8496.00
2022-10-11T10:28:02.670Z,8972.00
2022-10-11T10:29:02.769Z,9020.00
2022-10-11T10:30:02.886Z,9336.00
2022-10-11T10:31:02.886Z,15648.00
2022-10-11T10:32:18.961Z,18688.00
2022-10-11T10:33:03.188Z,19648.00
2022-10-11T10:34:03.556Z,11888.00
2022-10-11T10:35:03.062Z,8060.00
2022-10-11T10:36:03.367Z,7648.00
2022-10-11T10:37:03.282Z,8280.00
2022-10-11T10:38:03.082Z,24160.00
2022-10-11T10:39:03.077Z,26976.00
2022-10-11T10:40:03.032Z,27680.00
2022-10-11T10:41:03.140Z,27936.00
2022-10-11T10:42:03.377Z,27808.00
2022-10-11T10:43:03.107Z,28416.00
2022-10-11T10:44:03.150Z,27968.00
2022-10-11T10:45:04.151Z,28608.00
2022-10-11T10:46:04.081Z,28448.00
2022-10-11T10:47:02.883Z,27680.00
2022-10-11T10:48:02.697Z,20160.00
2022-10-11T10:50:03.238Z,20480.00
2022-10-11T10:51:07.079Z,8608.00
2022-10-11T10:52:03.176Z,7468.00
2022-10-11T10:53:03.390Z,6948.00
2022-10-11T10:54:03.213Z,6260.00
2022-10-11T10:55:02.858Z,9896.00
2022-10-11T10:56:03.259Z,5824.00
2022-10-11T10:57:03.284Z,5320.00
2022-10-11T10:58:03.297Z,5164.00
2022-10-11T10:59:03.106Z,5128.00
2022-10-11T11:00:03.685Z,4888.00
2022-10-11T11:01:03.194Z,4852.00
2022-10-11T11:02:16.047Z,4724.00
2022-10-11T11:03:03.031Z,4740.00
2022-10-11T11:04:03.359Z,4856.00
2022-10-11T11:05:03.651Z,4808.00
2022-10-11T11:06:04.040Z,5140.00
2022-10-11T11:07:03.550Z,5548.00
2022-10-11T11:08:03.591Z,5852.00
2022-10-11T11:09:03.185Z,6580.00
2022-10-11T11:10:03.831Z,8132.00
2022-10-11T11:11:03.778Z,9968.00
2022-10-11T11:12:03.629Z,17504.00
2022-10-11T11:13:03.478Z,17280.00
2022-10-11T11:14:03.493Z,18624.00
2022-10-11T11:15:03.790Z,14112.00
2022-10-11T11:16:04.176Z,10496.00
2022-10-11T11:17:02.894Z,10596.00
2022-10-11T11:18:03.001Z,10520.00
2022-10-11T11:19:02.889Z,10172.00
2022-10-11T11:20:02.543Z,14720.00
2022-10-11T11:21:02.932Z,16544.00
2022-10-11T11:22:03.433Z,18720.00
2022-10-11T11:23:03.623Z,18688.00
2022-10-11T11:24:03.615Z,16768.00
2022-10-11T11:25:03.472Z,16832.00
2022-10-11T11:26:03.904Z,17152.00
2022-10-11T11:27:03.573Z,17056.00
2022-10-11T11:28:03.256Z,15488.00
2022-10-11T11:29:03.227Z,12576.00
2022-10-11T11:30:03.402Z,10188.00
2022-10-11T11:31:03.743Z,9512.00
2022-10-11T11:32:03.727Z,9088.00
2022-10-11T11:33:03.672Z,10056.00
2022-10-11T11:34:03.448Z,10924.00
2022-10-11T11:35:03.985Z,13160.00
2022-10-11T11:36:03.850Z,14912.00
2022-10-11T11:37:03.143Z,19712.00
2022-10-11T11:38:06.375Z,19552.00
2022-10-11T11:39:02.700Z,20288.00
2022-10-11T11:40:03.231Z,20192.00
2022-10-11T11:41:03.470Z,22368.00
2022-10-11T11:42:03.805Z,20512.00
2022-10-11T11:43:03.957Z,20096.00
2022-10-11T11:44:03.598Z,20192.00
2022-10-11T11:45:03.646Z,19808.00
2022-10-11T11:46:03.737Z,17792.00
2022-10-11T11:47:02.946Z,18304.00
2022-10-11T11:48:03.363Z,21248.00
2022-10-11T11:49:03.519Z,20832.00
2022-10-11T11:50:03.026Z,21056.00
2022-10-11T11:51:03.215Z,21376.00
2022-10-11T11:52:03.458Z,22080.00
2022-10-11T11:53:03.069Z,22208.00
2022-10-11T11:54:03.019Z,22272.00
2022-10-11T11:55:04.266Z,22432.00
2022-10-11T11:56:03.593Z,22336.00
2022-10-11T11:57:03.710Z,22464.00
2022-10-11T11:58:07.097Z,22880.00
2022-10-11T11:59:03.799Z,23040.00
2022-10-11T12:00:03.455Z,22912.00
2022-10-11T12:01:03.793Z,22432.00
2022-10-11T12:02:02.758Z,21696.00
2022-10-11T12:03:02.783Z,20896.00
2022-10-11T12:04:02.215Z,20960.00
2022-10-11T12:05:02.405Z,17312.00
2022-10-11T12:06:02.306Z,13628.00
2022-10-11T12:07:15.938Z,13604.00
2022-10-11T12:08:02.706Z,13468.00
2022-10-11T12:09:02.591Z,17600.00
2022-10-11T12:10:02.835Z,13960.00
2022-10-11T12:11:02.644Z,13792.00
2022-10-11T12:12:02.858Z,14640.00
2022-10-11T12:13:02.586Z,16192.00
2022-10-11T12:14:02.815Z,12840.00
2022-10-11T12:15:02.607Z,12656.00
2022-10-11T12:16:02.777Z,12728.00
2022-10-11T12:17:03.374Z,12508.00
2022-10-11T12:18:03.271Z,13244.00
2022-10-11T12:19:02.924Z,12192.00
2022-10-11T12:20:03.464Z,11744.00
2022-10-11T12:21:03.541Z,12132.00
2022-10-11T12:22:02.892Z,11584.00
2022-10-11T12:23:02.795Z,11668.00
2022-10-11T12:24:02.624Z,10280.00
2022-10-11T12:25:02.341Z,6080.00
2022-10-11T12:26:02.524Z,5708.00
2022-10-11T12:27:03.013Z,5900.00
2022-10-11T12:28:02.848Z,6344.00
2022-10-11T12:29:02.834Z,8432.00
2022-10-11T12:30:02.434Z,6996.00
2022-10-11T12:31:03.010Z,6980.00
2022-10-11T12:32:03.451Z,7016.00
2022-10-11T12:33:03.510Z,4980.00
2022-10-11T12:34:03.401Z,4752.00
2022-10-11T12:35:03.234Z,4664.00